Time;durP1;ratioP1;P1;durP2;ratioP2;P2;SDS_P1;SDS_P2;PMS_P1;PMS_P2;Temp;Humidity;BMP_temperature;BMP_pressure;BME280_temperature;BME280_humidity;BME280_pressure;Samples;Min_cycle;Max_cycle;Signal;HPM_P1;HPM_P2
2022/08/13 00:02:07;;;;;;;2.67;0.90;;;24.20;32.90;;;;;;5019644;28;20057;-48
2022/08/13 00:04:35;;;;;;;2.20;1.13;;;24.20;33.10;;;;;;5021155;28;20069;-45
2022/08/13 00:09:38;;;;;;;2.33;1.00;;;24.20;33.20;;;;;;5024211;28;20493;-48
2022/08/13 00:14:56;;;;;;;3.53;0.98;;;24.20;33.50;;;;;;5007428;28;20060;-45
2022/08/13 00:17:23;;;;;;;3.60;0.95;;;24.10;33.50;;;;;;5024595;28;20087;-47
2022/08/13 00:19:53;;;;;;;2.58;1.05;;;24.10;33.50;;;;;;5020960;28;20094;-48
2022/08/13 00:22:25;;;;;;;1.70;0.90;;;24.10;33.50;;;;;;5025709;28;20068;-46
2022/08/13 00:24:55;;;;;;;1.77;1.20;;;24.10;33.70;;;;;;5022618;28;20060;-47
2022/08/13 00:27:23;;;;;;;2.28;1.33;;;24.00;33.70;;;;;;5024658;28;20084;-45
2022/08/13 00:29:54;;;;;;;1.55;0.95;;;24.00;33.70;;;;;;5020737;28;20057;-46
2022/08/13 00:32:26;;;;;;;1.15;0.75;;;24.00;33.70;;;;;;5007206;28;20553;-48
2022/08/13 00:34:53;;;;;;;2.92;1.00;;;23.90;33.80;;;;;;5019756;28;20053;-44
2022/08/13 00:37:22;;;;;;;1.25;0.90;;;23.90;33.70;;;;;;5023838;28;20061;-43
2022/08/13 00:39:49;;;;;;;1.35;0.95;;;23.90;33.80;;;;;;5021622;28;20409;-46
2022/08/13 00:42:22;;;;;;;2.72;1.10;;;23.90;34.00;;;;;;5025575;28;20057;-45
2022/08/13 00:44:49;;;;;;;1.77;0.80;;;23.90;34.00;;;;;;5022525;28;20056;-46
2022/08/13 00:50:02;;;;;;;0.80;0.80;;;23.80;33.80;;;;;;5021174;28;20099;-45
2022/08/13 00:52:31;;;;;;;1.08;0.98;;;23.70;34.30;;;;;;5024773;28;20060;-46
2022/08/13 00:55:00;;;;;;;1.52;1.10;;;23.70;33.90;;;;;;5023277;28;20050;-46
2022/08/13 00:57:29;;;;;;;1.10;0.90;;;23.70;33.90;;;;;;5023838;28;20409;-45
2022/08/13 00:59:57;;;;;;;2.72;1.10;;;23.60;33.90;;;;;;5017876;28;20054;-43
2022/08/13 01:02:25;;;;;;;6.30;1.00;;;23.60;34.10;;;;;;5022289;28;20497;-47
2022/08/13 01:04:53;;;;;;;4.43;0.90;;;23.60;34.20;;;;;;5024397;28;20513;-45
2022/08/13 01:07:21;;;;;;;1.25;0.95;;;23.60;34.20;;;;;;5024904;28;20053;-45
2022/08/13 01:09:48;;;;;;;1.13;0.70;;;23.50;34.00;;;;;;5019012;28;20409;-43
2022/08/13 01:12:19;;;;;;;1.77;1.10;;;23.50;34.20;;;;;;5024663;28;20054;-47
2022/08/13 01:14:51;;;;;;;1.92;1.00;;;23.50;34.30;;;;;;5022755;28;20060;-46
2022/08/13 01:17:22;;;;;;;2.17;1.00;;;23.50;34.40;;;;;;5024056;28;20060;-44
2022/08/13 01:19:50;;;;;;;1.45;0.88;;;23.50;34.50;;;;;;5019156;28;20046;-46
2022/08/13 01:22:20;;;;;;;2.50;0.93;;;23.50;34.60;;;;;;5022346;28;20520;-45
2022/08/13 01:24:50;;;;;;;2.47;0.85;;;23.40;34.60;;;;;;5022781;28;20057;-47
2022/08/13 01:27:18;;;;;;;2.42;0.95;;;23.40;34.60;;;;;;5024262;28;20049;-45
2022/08/13 01:29:47;;;;;;;3.22;0.90;;;23.40;34.60;;;;;;5018870;28;20062;-49
2022/08/13 01:32:16;;;;;;;1.75;0.85;;;23.40;34.70;;;;;;5022186;28;20061;-45
2022/08/13 01:34:45;;;;;;;1.60;0.75;;;23.40;34.80;;;;;;5020037;28;20065;-45
2022/08/13 01:37:13;;;;;;;1.48;0.98;;;23.30;35.00;;;;;;5024379;28;20061;-45
2022/08/13 01:39:44;;;;;;;2.25;0.80;;;23.30;35.00;;;;;;5013220;28;20061;-47
2022/08/13 01:42:13;;;;;;;3.30;0.88;;;23.30;35.10;;;;;;5022618;28;20053;-44
2022/08/13 01:44:41;;;;;;;1.52;1.05;;;23.30;35.00;;;;;;5022505;28;20501;-47
2022/08/13 01:52:41;;;;;;;2.88;0.95;;;23.20;34.90;;;;;;5028525;28;20507;-44
2022/08/13 01:55:10;;;;;;;4.85;0.80;;;23.20;35.20;;;;;;5022802;28;20041;-48
2022/08/13 01:57:40;;;;;;;1.33;1.02;;;23.10;35.30;;;;;;5022237;28;20500;-45
2022/08/13 02:00:09;;;;;;;3.30;1.02;;;23.20;35.40;;;;;;5017568;28;20057;-46
2022/08/13 02:02:37;;;;;;;3.53;1.08;;;23.10;35.40;;;;;;5021437;28;20049;-45
2022/08/13 02:05:10;;;;;;;1.30;0.90;;;23.10;35.50;;;;;;5022986;28;20056;-46
2022/08/13 02:07:38;;;;;;;1.42;0.90;;;23.10;35.60;;;;;;5021467;28;20412;-44
2022/08/13 02:10:06;;;;;;;1.35;0.70;;;23.00;35.60;;;;;;5018266;28;20049;-48
2022/08/13 02:12:35;;;;;;;4.53;0.98;;;23.00;35.60;;;;;;5021463;28;20531;-48
2022/08/13 02:15:05;;;;;;;2.22;1.02;;;23.00;35.80;;;;;;5022887;28;20272;-46
2022/08/13 02:17:41;;;;;;;3.83;0.90;;;23.00;35.80;;;;;;5021152;28;20061;-48
2022/08/13 02:20:11;;;;;;;1.83;1.10;;;22.90;35.80;;;;;;5019823;28;20049;-46
2022/08/13 02:22:40;;;;;;;1.38;1.00;;;22.90;35.80;;;;;;5022389;28;21018;-48
2022/08/13 02:25:08;;;;;;;3.63;1.08;;;22.90;35.80;;;;;;5022677;28;20054;-46
2022/08/13 02:27:38;;;;;;;1.00;0.80;;;22.90;35.90;;;;;;5021402;28;20080;-43
2022/08/13 02:30:09;;;;;;;3.22;1.00;;;22.80;35.90;;;;;;5016628;28;20057;-47
2022/08/13 02:32:37;;;;;;;1.50;1.05;;;22.80;36.00;;;;;;5020660;28;20060;-49
2022/08/13 02:35:05;;;;;;;1.17;1.00;;;22.80;36.00;;;;;;5021511;28;20088;-43
2022/08/13 02:43:03;;;;;;;3.63;1.02;;;22.70;36.20;;;;;;5022962;28;20064;-44
2022/08/13 02:45:30;;;;;;;1.60;0.82;;;22.70;36.20;;;;;;5019438;28;20054;-47
2022/08/13 02:47:58;;;;;;;0.77;0.77;;;22.70;36.10;;;;;;5012328;28;20420;-44
2022/08/13 02:50:27;;;;;;;0.95;0.85;;;22.60;36.20;;;;;;5016496;28;20057;-47
2022/08/13 02:52:54;;;;;;;1.65;0.82;;;22.60;36.30;;;;;;5022060;28;20064;-45
2022/08/13 02:55:23;;;;;;;0.95;0.82;;;22.60;36.20;;;;;;5021460;28;20262;-47
2022/08/13 02:57:51;;;;;;;2.58;0.93;;;22.60;36.30;;;;;;5021371;28;20045;-44
2022/08/13 03:00:21;;;;;;;2.58;1.00;;;22.50;36.40;;;;;;5015992;28;20053;-45
2022/08/13 03:02:48;;;;;;;1.02;0.90;;;22.50;36.50;;;;;;5015472;28;20061;-46
2022/08/13 03:05:19;;;;;;;1.08;0.85;;;22.50;36.60;;;;;;5022370;28;20049;-49
2022/08/13 03:07:48;;;;;;;0.88;0.85;;;22.50;36.60;;;;;;5022055;28;20060;-44
2022/08/13 03:10:18;;;;;;;1.60;0.90;;;22.40;37.00;;;;;;5002005;28;20052;-46
2022/08/13 03:12:48;;;;;;;1.38;1.00;;;22.40;36.60;;;;;;5021782;28;20564;-45
2022/08/13 03:15:17;;;;;;;3.53;1.15;;;22.40;36.60;;;;;;5021836;28;20056;-49
2022/08/13 03:17:45;;;;;;;3.72;1.15;;;22.40;36.80;;;;;;5022603;28;20064;-46
2022/08/13 03:20:16;;;;;;;0.80;0.80;;;22.30;36.80;;;;;;5020998;28;20068;-44
2022/08/13 03:22:51;;;;;;;1.65;1.10;;;22.30;36.90;;;;;;5021835;28;20064;-48
2022/08/13 03:25:19;;;;;;;1.77;1.23;;;22.30;37.00;;;;;;5021968;28;20053;-43
2022/08/13 03:27:46;;;;;;;0.88;0.80;;;22.30;37.00;;;;;;5021344;28;20390;-47
2022/08/13 03:30:15;;;;;;;3.45;0.88;;;22.30;37.00;;;;;;5017734;28;20053;-47
2022/08/13 03:32:45;;;;;;;2.92;0.90;;;22.20;37.10;;;;;;5021875;28;20050;-49
2022/08/13 03:35:15;;;;;;;1.05;0.95;;;22.20;37.10;;;;;;5022132;28;20053;-45
2022/08/13 03:37:45;;;;;;;0.85;0.75;;;22.20;37.20;;;;;;5019503;28;20643;-43
2022/08/13 03:40:14;;;;;;;2.38;1.00;;;22.20;37.30;;;;;;5018814;28;20060;-48
2022/08/13 03:42:42;;;;;;;1.45;0.90;;;22.20;37.40;;;;;;5020913;28;20080;-49
2022/08/13 03:45:11;;;;;;;1.50;0.90;;;22.10;37.30;;;;;;5020864;28;20053;-46
2022/08/13 03:47:38;;;;;;;2.10;1.23;;;22.10;37.40;;;;;;5025737;28;20049;-47
2022/08/13 03:50:09;;;;;;;1.05;0.80;;;22.10;37.40;;;;;;5021766;28;20053;-43
2022/08/13 03:52:37;;;;;;;1.02;0.80;;;22.10;37.60;;;;;;5021734;28;20053;-48
2022/08/13 03:55:09;;;;;;;2.70;1.20;;;22.00;37.50;;;;;;5021425;28;20064;-44
2022/08/13 03:57:40;;;;;;;2.55;0.90;;;22.00;37.70;;;;;;5023953;28;20046;-46
2022/08/13 04:00:10;;;;;;;1.00;0.90;;;22.00;37.70;;;;;;5024409;28;20054;-45
2022/08/13 04:02:40;;;;;;;3.20;1.20;;;21.90;37.80;;;;;;5005647;28;20512;-45
2022/08/13 04:05:13;;;;;;;1.55;0.88;;;21.90;37.80;;;;;;5025499;28;20049;-46
2022/08/13 04:07:40;;;;;;;1.33;0.93;;;21.90;38.00;;;;;;5023860;28;20481;-45
2022/08/13 04:10:09;;;;;;;1.08;0.98;;;21.90;38.00;;;;;;5013133;28;20050;-46
2022/08/13 04:12:37;;;;;;;2.75;0.98;;;21.90;38.00;;;;;;5002961;28;20058;-46
2022/08/13 04:15:05;;;;;;;1.15;1.02;;;21.80;38.10;;;;;;5001549;28;20049;-47
2022/08/13 04:17:33;;;;;;;1.15;0.90;;;21.80;38.20;;;;;;5004061;28;20169;-42
2022/08/13 04:20:01;;;;;;;0.90;0.88;;;21.80;38.30;;;;;;5001781;28;20064;-45
2022/08/13 04:22:29;;;;;;;4.10;0.70;;;21.80;38.30;;;;;;5002345;28;20058;-47
2022/08/13 04:24:58;;;;;;;1.65;1.10;;;21.70;38.30;;;;;;5005359;28;20405;-48
2022/08/13 04:27:25;;;;;;;1.70;1.00;;;21.70;38.40;;;;;;5004788;28;20054;-45
2022/08/13 04:29:55;;;;;;;2.25;0.90;;;21.70;38.50;;;;;;5002423;28;20058;-47
2022/08/13 04:32:23;;;;;;;8.68;5.10;;;21.70;38.50;;;;;;5004498;28;20416;-46
2022/08/13 04:34:50;;;;;;;6.88;4.35;;;21.60;38.50;;;;;;5004263;28;20060;-44
2022/08/13 04:37:18;;;;;;;6.13;3.67;;;21.70;38.60;;;;;;5001440;28;20488;-44
2022/08/13 04:39:46;;;;;;;3.97;2.13;;;21.60;38.60;;;;;;4996197;28;20077;-48
2022/08/13 04:42:13;;;;;;;1.80;1.30;;;21.60;38.70;;;;;;5003819;28;20420;-42
2022/08/13 04:44:41;;;;;;;1.23;1.10;;;21.60;38.80;;;;;;4999428;28;20061;-45
2022/08/13 04:47:08;;;;;;;3.33;1.10;;;21.60;38.90;;;;;;4997511;28;20049;-47
2022/08/13 04:49:35;;;;;;;1.98;1.20;;;21.60;39.00;;;;;;5000241;28;20053;-44
2022/08/13 04:52:02;;;;;;;2.65;1.20;;;21.50;39.00;;;;;;5003912;28;20439;-43
2022/08/13 04:54:30;;;;;;;3.65;1.10;;;21.50;39.10;;;;;;5002414;28;20484;-44
2022/08/13 04:56:58;;;;;;;1.70;1.25;;;21.50;39.20;;;;;;5003652;28;20053;-43
2022/08/13 04:59:25;;;;;;;1.75;1.17;;;21.50;39.20;;;;;;5001117;28;20049;-44
2022/08/13 05:01:53;;;;;;;2.00;1.17;;;21.50;39.10;;;;;;4999447;28;20417;-48
2022/08/13 05:04:20;;;;;;;4.18;1.52;;;21.50;39.10;;;;;;5002269;28;20092;-46
2022/08/13 05:06:51;;;;;;;5.07;1.35;;;21.50;39.20;;;;;;5003354;28;20442;-45
2022/08/13 05:09:18;;;;;;;3.60;1.35;;;21.50;39.40;;;;;;5002709;28;20325;-45
2022/08/13 05:11:46;;;;;;;5.35;1.08;;;21.50;39.60;;;;;;4998444;28;20062;-45
2022/08/13 05:14:15;;;;;;;0.70;0.70;;;21.50;39.70;;;;;;4997211;28;20493;-46
2022/08/13 05:16:42;;;;;;;1.60;1.15;;;21.50;39.80;;;;;;5002725;28;20422;-44
2022/08/13 05:19:09;;;;;;;1.20;0.95;;;21.50;39.90;;;;;;5004201;28;20058;-45
2022/08/13 05:21:37;;;;;;;1.20;1.10;;;21.50;39.90;;;;;;4997841;28;20058;-44
2022/08/13 05:24:04;;;;;;;1.85;1.05;;;21.50;40.10;;;;;;5003712;28;20422;-43
2022/08/13 05:26:32;;;;;;;2.28;1.05;;;21.50;40.00;;;;;;5003124;28;20050;-43
2022/08/13 05:29:02;;;;;;;2.20;0.90;;;21.60;40.00;;;;;;5001341;28;20508;-44
2022/08/13 05:31:31;;;;;;;1.45;1.13;;;21.50;40.00;;;;;;4999918;28;20061;-44
2022/08/13 05:33:59;;;;;;;2.50;0.95;;;21.60;40.10;;;;;;5001340;28;20057;-43
2022/08/13 05:36:28;;;;;;;2.95;0.90;;;21.60;40.20;;;;;;5001285;28;20045;-46
2022/08/13 05:38:58;;;;;;;1.60;1.20;;;21.60;40.30;;;;;;5002105;28;20050;-44
2022/08/13 05:41:26;;;;;;;1.80;1.02;;;21.60;40.50;;;;;;4998911;28;20076;-44
2022/08/13 05:43:53;;;;;;;1.63;1.20;;;21.60;40.50;;;;;;4997240;28;20049;-47
2022/08/13 05:46:21;;;;;;;1.98;1.20;;;21.70;40.80;;;;;;5002841;28;20509;-43
2022/08/13 05:48:57;;;;;;;1.88;1.00;;;21.70;40.60;;;;;;5002175;28;20057;-43
2022/08/13 05:51:25;;;;;;;2.65;1.00;;;21.70;40.60;;;;;;4999685;28;20062;-44
2022/08/13 05:53:54;;;;;;;2.55;1.00;;;21.80;40.90;;;;;;5001547;28;20489;-45
2022/08/13 05:56:22;;;;;;;1.65;1.08;;;21.80;40.70;;;;;;5002888;28;20053;-50
2022/08/13 05:58:50;;;;;;;1.67;1.10;;;21.80;40.80;;;;;;4999252;28;20077;-45
2022/08/13 06:04:08;;;;;;;1.92;1.10;;;21.90;41.20;;;;;;5007186;28;20060;-46
2022/08/13 06:06:36;;;;;;;2.38;1.50;;;22.00;41.00;;;;;;5003068;28;20516;-45
2022/08/13 06:09:05;;;;;;;1.67;1.40;;;22.10;40.90;;;;;;5001016;28;20642;-48
2022/08/13 06:11:32;;;;;;;3.20;1.33;;;22.10;40.90;;;;;;4994126;28;20468;-43
2022/08/13 06:14:00;;;;;;;3.85;1.13;;;22.20;41.10;;;;;;4997996;28;20065;-44
2022/08/13 06:16:30;;;;;;;1.13;1.02;;;22.20;40.90;;;;;;5002109;28;20125;-43
2022/08/13 06:18:58;;;;;;;3.40;1.30;;;22.30;41.00;;;;;;5001302;28;20057;-45
2022/08/13 06:21:28;;;;;;;1.48;1.10;;;22.30;40.90;;;;;;4997778;28;20626;-47
2022/08/13 06:23:56;;;;;;;6.75;1.30;;;22.40;40.80;;;;;;5000790;28;20068;-47
2022/08/13 06:26:24;;;;;;;3.83;1.13;;;22.50;40.80;;;;;;4999231;28;20058;-47
2022/08/13 06:28:53;;;;;;;1.17;0.93;;;22.50;41.00;;;;;;5000425;28;20485;-44
2022/08/13 06:31:27;;;;;;;2.53;1.40;;;22.60;40.70;;;;;;4998637;28;20061;-47
2022/08/13 06:33:56;;;;;;;3.67;1.33;;;22.60;40.80;;;;;;4999795;28;20062;-45
2022/08/13 06:36:29;;;;;;;3.05;1.00;;;22.70;40.30;;;;;;5000083;28;20068;-45
2022/08/13 06:39:02;;;;;;;0.80;0.80;;;22.80;40.80;;;;;;5000854;28;20539;-45
2022/08/13 06:41:31;;;;;;;4.20;1.10;;;22.80;41.40;;;;;;4998351;28;20496;-46
2022/08/13 06:44:02;;;;;;;2.08;1.00;;;22.90;40.80;;;;;;5000474;28;20053;-45
2022/08/13 06:46:30;;;;;;;1.45;0.80;;;23.00;40.60;;;;;;5001489;28;20062;-43
2022/08/13 06:49:00;;;;;;;2.05;1.05;;;23.00;40.40;;;;;;4999085;28;20061;-47
2022/08/13 06:51:29;;;;;;;1.25;0.93;;;23.10;40.40;;;;;;4979063;28;20936;-44
2022/08/13 06:53:56;;;;;;;2.67;1.27;;;23.20;40.20;;;;;;4996350;28;20050;-48
2022/08/13 06:56:28;;;;;;;2.10;1.23;;;23.20;40.20;;;;;;5001240;28;20068;-43
2022/08/13 06:58:58;;;;;;;1.50;1.15;;;23.30;40.40;;;;;;5000156;28;20057;-46
2022/08/13 07:01:27;;;;;;;2.03;1.17;;;23.40;40.30;;;;;;4998495;28;20058;-47
2022/08/13 07:03:54;;;;;;;4.10;1.00;;;23.40;40.10;;;;;;5000414;28;20417;-48
2022/08/13 07:06:26;;;;;;;2.55;1.27;;;23.50;40.00;;;;;;5000066;28;20057;-47
2022/08/13 07:08:56;;;;;;;3.03;1.73;;;23.60;39.80;;;;;;4999950;28;20046;-47
2022/08/13 07:11:26;;;;;;;3.05;1.42;;;23.70;39.60;;;;;;4998350;28;20054;-44
2022/08/13 07:14:00;;;;;;;5.00;3.22;;;23.70;39.60;;;;;;4994757;28;20045;-45
2022/08/13 07:16:32;;;;;;;5.18;2.17;;;23.80;39.60;;;;;;5001124;28;20053;-50
2022/08/13 07:19:03;;;;;;;3.85;2.33;;;23.90;39.50;;;;;;5001520;28;20049;-46
2022/08/13 07:21:35;;;;;;;2.50;1.45;;;23.90;39.40;;;;;;5000551;28;20095;-47
2022/08/13 07:24:05;;;;;;;1.90;1.40;;;24.00;39.70;;;;;;5004098;28;20057;-44
2022/08/13 07:26:33;;;;;;;1.45;1.15;;;24.10;39.30;;;;;;5005505;28;20053;-45
2022/08/13 07:29:02;;;;;;;1.98;1.17;;;24.20;39.20;;;;;;5002973;28;20060;-48
2022/08/13 07:31:32;;;;;;;1.65;0.98;;;24.20;39.40;;;;;;5002526;28;20057;-47
2022/08/13 07:34:04;;;;;;;2.22;1.42;;;24.40;39.40;;;;;;5003757;28;20497;-48
2022/08/13 07:36:33;;;;;;;4.28;1.10;;;24.40;39.20;;;;;;5001638;28;20058;-44
2022/08/13 07:39:04;;;;;;;2.38;1.00;;;24.50;38.60;;;;;;5004088;28;20129;-46
2022/08/13 07:41:40;;;;;;;7.57;1.30;;;24.60;38.70;;;;;;5004422;28;20061;-45
2022/08/13 07:44:11;;;;;;;2.60;1.20;;;24.70;38.80;;;;;;5004578;28;20054;-47
2022/08/13 07:46:42;;;;;;;3.15;1.00;;;24.80;38.50;;;;;;5005702;28;21524;-46
2022/08/13 07:49:11;;;;;;;1.10;0.93;;;24.80;38.00;;;;;;5005204;28;20053;-48
2022/08/13 07:51:39;;;;;;;2.38;1.10;;;24.90;38.30;;;;;;5004386;28;20061;-49
2022/08/13 07:54:07;;;;;;;4.18;1.20;;;25.00;38.10;;;;;;5004289;28;20061;-47
2022/08/13 07:56:39;;;;;;;3.63;1.15;;;25.00;37.80;;;;;;5004676;28;20057;-44
2022/08/13 07:59:10;;;;;;;1.60;1.20;;;25.10;37.90;;;;;;5003082;28;20065;-47
2022/08/13 08:01:45;;;;;;;1.00;0.90;;;25.20;37.70;;;;;;5002607;28;20060;-47
2022/08/13 08:04:15;;;;;;;2.35;1.00;;;25.30;37.00;;;;;;4997125;28;20053;-47
2022/08/13 08:06:45;;;;;;;1.65;0.95;;;25.30;37.00;;;;;;4996095;28;20618;-47
2022/08/13 08:09:17;;;;;;;0.93;0.77;;;25.40;36.90;;;;;;5001784;28;20058;-46
2022/08/13 08:14:40;;;;;;;2.10;1.10;;;25.50;36.80;;;;;;5008112;28;20065;-45
2022/08/13 08:17:11;;;;;;;5.97;1.65;;;25.60;36.90;;;;;;5004086;28;20061;-45
2022/08/13 08:19:39;;;;;;;1.17;0.77;;;25.70;36.90;;;;;;5000831;28;20061;-46
2022/08/13 08:22:08;;;;;;;0.75;0.75;;;25.80;36.60;;;;;;5000266;28;20057;-46
2022/08/13 08:24:42;;;;;;;1.02;0.93;;;25.90;36.30;;;;;;5002734;28;20053;-47
2022/08/13 08:27:19;;;;;;;2.78;0.90;;;25.90;36.10;;;;;;5002619;28;20046;-45
2022/08/13 08:29:49;;;;;;;2.78;1.10;;;26.10;36.30;;;;;;4998962;28;20049;-48
2022/08/13 08:32:17;;;;;;;1.70;1.05;;;26.10;36.10;;;;;;5001817;28;20045;-46
2022/08/13 08:34:46;;;;;;;3.35;1.00;;;26.20;35.80;;;;;;5002105;28;20056;-47
2022/08/13 08:43:00;;;;;;;1.40;0.80;;;26.40;35.60;;;;;;5008749;28;20064;-45
2022/08/13 08:45:31;;;;;;;1.48;0.85;;;26.60;35.50;;;;;;5003910;28;20054;-46
2022/08/13 08:47:59;;;;;;;1.10;0.98;;;26.70;35.20;;;;;;5000626;28;20473;-47
2022/08/13 08:50:29;;;;;;;2.92;0.95;;;26.70;35.10;;;;;;5001731;28;20061;-46
2022/08/13 08:55:42;;;;;;;1.23;1.08;;;26.80;34.80;;;;;;5002289;28;20053;-47
2022/08/13 08:58:12;;;;;;;2.95;1.25;;;27.00;34.70;;;;;;4998699;28;20069;-44
2022/08/13 09:00:40;;;;;;;1.38;1.10;;;27.00;34.30;;;;;;4996671;28;20050;-46
2022/08/13 09:03:10;;;;;;;3.70;1.10;;;27.10;34.00;;;;;;4999332;28;20106;-45
2022/08/13 09:05:40;;;;;;;1.58;1.05;;;27.10;33.80;;;;;;5000561;28;20065;-49
2022/08/13 09:08:07;;;;;;;1.15;1.00;;;27.20;34.50;;;;;;5004267;28;20520;-47
2022/08/13 09:10:37;;;;;;;2.45;1.00;;;27.30;33.80;;;;;;5000530;28;20058;-47
2022/08/13 09:13:04;;;;;;;1.23;0.95;;;27.30;33.40;;;;;;5001700;28;20073;-43
2022/08/13 09:15:36;;;;;;;1.02;1.00;;;27.40;33.40;;;;;;5000580;28;20069;-45
2022/08/13 09:18:03;;;;;;;0.90;0.88;;;27.40;33.50;;;;;;5001356;28;20050;-48
2022/08/13 09:20:33;;;;;;;2.70;1.17;;;27.50;33.40;;;;;;4999641;28;20485;-43
2022/08/13 09:23:03;;;;;;;1.73;1.17;;;27.50;33.20;;;;;;5002353;28;20061;-48
2022/08/13 09:25:31;;;;;;;4.10;1.20;;;27.60;33.30;;;;;;5003960;28;20054;-45
2022/08/13 09:27:58;;;;;;;2.30;1.05;;;27.60;33.20;;;;;;5002351;28;20493;-44
2022/08/13 09:30:26;;;;;;;2.72;1.10;;;27.70;33.10;;;;;;5000545;28;20057;-50
2022/08/13 09:33:03;;;;;;;4.25;1.10;;;27.70;32.50;;;;;;5000568;28;20402;-44
2022/08/13 09:35:32;;;;;;;1.45;1.00;;;27.80;32.70;;;;;;5001333;28;20070;-46
2022/08/13 09:38:01;;;;;;;1.67;1.10;;;27.90;32.80;;;;;;5003160;28;20050;-48
2022/08/13 09:40:29;;;;;;;4.70;1.60;;;27.90;32.60;;;;;;4999411;28;20498;-47
2022/08/13 09:43:01;;;;;;;1.45;1.00;;;28.00;32.50;;;;;;5002009;28;20069;-47
2022/08/13 09:45:30;;;;;;;1.20;1.10;;;28.00;32.50;;;;;;5000822;28;20054;-45
2022/08/13 09:47:58;;;;;;;1.25;1.13;;;28.10;32.40;;;;;;5001040;28;20054;-45
2022/08/13 09:50:26;;;;;;;1.40;1.10;;;28.20;32.30;;;;;;4998237;28;20733;-45
2022/08/13 09:52:57;;;;;;;1.20;1.10;;;28.20;32.10;;;;;;5000656;28;20058;-47
2022/08/13 09:55:24;;;;;;;2.17;1.00;;;28.30;32.10;;;;;;5003500;28;20054;-44
2022/08/13 09:57:53;;;;;;;1.73;0.95;;;28.30;32.20;;;;;;4997715;28;20057;-49
2022/08/13 10:00:27;;;;;;;1.20;1.10;;;28.40;32.30;;;;;;4999081;28;20066;-46
2022/08/13 10:02:59;;;;;;;1.20;1.10;;;28.40;31.90;;;;;;4998370;28;20056;-50
2022/08/13 10:05:34;;;;;;;4.32;1.23;;;28.50;31.70;;;;;;4996149;28;20587;-45
2022/08/13 10:08:10;;;;;;;4.07;1.20;;;28.50;31.20;;;;;;4998326;28;20049;-48
2022/08/13 10:10:37;;;;;;;1.33;1.20;;;28.60;30.90;;;;;;4997750;28;20065;-47
2022/08/13 10:13:04;;;;;;;1.45;1.20;;;28.60;30.90;;;;;;4998981;28;20057;-46
2022/08/13 10:15:33;;;;;;;8.23;1.30;;;28.70;30.80;;;;;;5000354;28;20045;-46
2022/08/13 10:18:04;;;;;;;1.42;1.00;;;28.70;30.90;;;;;;5000311;28;20500;-48
2022/08/13 10:20:36;;;;;;;2.90;1.10;;;28.70;31.10;;;;;;4999311;28;20520;-48
2022/08/13 10:23:05;;;;;;;1.40;0.95;;;28.80;30.60;;;;;;5002062;28;20424;-47
2022/08/13 10:25:32;;;;;;;1.58;1.20;;;28.90;30.20;;;;;;5000614;28;20057;-47
2022/08/13 10:27:59;;;;;;;1.45;0.90;;;28.90;30.20;;;;;;5002525;28;20057;-47
2022/08/13 10:30:31;;;;;;;2.08;0.90;;;28.90;29.90;;;;;;4998373;28;20710;-47
2022/08/13 10:32:59;;;;;;;1.27;1.13;;;29.00;29.80;;;;;;5001693;28;20141;-45
2022/08/13 10:35:27;;;;;;;1.05;1.02;;;29.00;30.10;;;;;;5002158;28;20065;-46
2022/08/13 10:37:57;;;;;;;1.60;1.10;;;29.00;29.80;;;;;;5002290;28;20065;-48
2022/08/13 10:40:29;;;;;;;3.00;1.00;;;29.00;29.70;;;;;;4999835;28;20457;-49
2022/08/13 10:42:57;;;;;;;2.58;1.00;;;29.10;29.60;;;;;;4999867;28;20057;-46
2022/08/13 10:45:24;;;;;;;6.47;1.58;;;29.10;29.60;;;;;;5000912;28;20058;-47
2022/08/13 10:48:00;;;;;;;2.47;1.30;;;29.10;29.70;;;;;;5001806;28;20054;-46
2022/08/13 10:50:29;;;;;;;2.42;1.23;;;29.20;29.70;;;;;;5000764;28;20054;-46
2022/08/13 10:52:59;;;;;;;2.13;1.15;;;29.20;29.40;;;;;;4999843;28;20520;-46
2022/08/13 10:55:29;;;;;;;1.63;0.90;;;29.30;29.50;;;;;;5000192;28;20057;-48
2022/08/13 10:58:14;;;;;;;2.53;1.10;;;29.30;29.40;;;;;;5000160;28;20397;-50
2022/08/13 11:00:42;;;;;;;1.23;1.00;;;29.40;29.50;;;;;;4996855;28;20482;-46
2022/08/13 11:03:10;;;;;;;0.82;0.80;;;29.40;29.20;;;;;;5001061;28;20058;-47
2022/08/13 11:05:37;;;;;;;1.80;1.02;;;29.50;28.90;;;;;;5002619;28;20057;-46
2022/08/13 11:08:06;;;;;;;5.57;1.20;;;29.50;29.00;;;;;;5000069;28;20057;-49
2022/08/13 11:10:35;;;;;;;3.63;1.02;;;29.50;28.80;;;;;;4995918;28;20058;-47
2022/08/13 11:13:05;;;;;;;1.25;1.15;;;29.50;28.70;;;;;;4995461;28;20862;-49
2022/08/13 11:15:35;;;;;;;1.83;0.88;;;29.60;28.60;;;;;;5000638;28;20050;-47
2022/08/13 11:18:06;;;;;;;2.63;1.08;;;29.60;28.50;;;;;;4997885;28;20425;-51
2022/08/13 11:20:40;;;;;;;2.78;1.00;;;29.60;28.50;;;;;;5000379;28;20045;-49
2022/08/13 11:23:10;;;;;;;1.85;1.00;;;29.60;28.70;;;;;;5001888;28;20045;-47
2022/08/13 11:25:37;;;;;;;0.93;0.80;;;29.60;28.40;;;;;;5000221;28;20073;-47
2022/08/13 11:28:15;;;;;;;3.13;1.20;;;29.70;28.60;;;;;;4995519;28;20053;-46
2022/08/13 11:30:42;;;;;;;0.90;0.90;;;29.70;28.60;;;;;;4993928;28;20507;-47
2022/08/13 11:33:09;;;;;;;1.23;1.00;;;29.70;28.40;;;;;;4999091;28;20061;-47
2022/08/13 11:35:36;;;;;;;1.52;1.13;;;29.70;28.40;;;;;;5002724;28;20498;-48
2022/08/13 11:38:07;;;;;;;1.45;1.13;;;29.80;28.50;;;;;;5001859;28;20058;-48
2022/08/13 11:40:38;;;;;;;3.75;0.90;;;29.90;28.30;;;;;;4992079;28;20496;-49
2022/08/13 11:43:08;;;;;;;1.20;0.90;;;29.90;28.40;;;;;;4998281;28;20054;-50
2022/08/13 11:45:35;;;;;;;1.10;1.00;;;29.90;28.20;;;;;;5000798;28;20054;-48
2022/08/13 11:48:06;;;;;;;2.08;0.95;;;29.90;28.10;;;;;;5000218;28;20061;-48
2022/08/13 11:50:35;;;;;;;37.08;23.25;;;29.90;27.80;;;;;;4997189;28;20061;-48
2022/08/13 11:53:04;;;;;;;46.97;31.58;;;29.90;28.00;;;;;;4999410;28;20057;-48
2022/08/13 11:55:33;;;;;;;11.00;7.80;;;30.00;27.90;;;;;;4996924;28;20062;-47
2022/08/13 11:58:02;;;;;;;5.50;2.95;;;30.00;27.80;;;;;;5000219;28;20057;-48
2022/08/13 12:00:29;;;;;;;3.15;1.80;;;30.00;27.90;;;;;;4996786;28;20058;-48
2022/08/13 12:02:56;;;;;;;2.72;1.55;;;30.10;28.00;;;;;;5001663;28;20064;-47
2022/08/13 12:05:23;;;;;;;1.10;1.00;;;30.10;28.10;;;;;;5000772;28;20054;-47
2022/08/13 12:07:51;;;;;;;1.30;1.20;;;30.20;27.30;;;;;;5001616;28;20049;-48
2022/08/13 12:10:21;;;;;;;1.05;1.00;;;30.20;27.60;;;;;;5002384;28;20058;-44
2022/08/13 12:13:00;;;;;;;1.00;0.90;;;30.20;27.70;;;;;;5000388;28;20049;-46
2022/08/13 12:15:29;;;;;;;1.88;1.20;;;30.30;27.60;;;;;;5001008;28;20053;-47
2022/08/13 12:18:01;;;;;;;1.60;1.17;;;30.40;27.40;;;;;;5005859;28;20064;-49
2022/08/13 12:20:30;;;;;;;1.27;0.98;;;30.40;27.60;;;;;;5001374;28;20057;-50
2022/08/13 12:23:00;;;;;;;0.95;0.95;;;30.40;27.50;;;;;;5000835;28;20058;-47
2022/08/13 12:25:29;;;;;;;0.90;0.90;;;30.40;27.30;;;;;;5004840;28;20061;-49
2022/08/13 12:28:08;;;;;;;1.27;0.90;;;30.50;27.40;;;;;;5003098;28;20053;-46
2022/08/13 12:30:37;;;;;;;1.70;0.90;;;30.50;27.10;;;;;;5002805;28;20056;-46
2022/08/13 12:33:06;;;;;;;1.17;1.08;;;30.50;27.30;;;;;;5003869;28;20417;-45
2022/08/13 12:35:37;;;;;;;1.10;1.00;;;30.50;27.50;;;;;;5003731;28;20502;-47
2022/08/13 12:38:09;;;;;;;1.88;1.00;;;30.60;27.40;;;;;;5004493;28;21023;-50
2022/08/13 12:40:38;;;;;;;1.05;0.95;;;30.70;27.30;;;;;;4998441;28;20061;-47
2022/08/13 12:43:06;;;;;;;0.82;0.80;;;30.70;26.90;;;;;;5004144;28;20061;-46
2022/08/13 12:45:37;;;;;;;4.10;1.38;;;30.70;26.80;;;;;;5001557;28;20050;-50
2022/08/13 12:48:06;;;;;;;2.63;1.20;;;30.70;26.60;;;;;;5002901;28;20050;-49
2022/08/13 12:50:35;;;;;;;1.50;1.00;;;30.80;26.70;;;;;;4999182;28;20056;-48
2022/08/13 12:53:06;;;;;;;3.13;1.05;;;30.80;26.50;;;;;;5002685;28;20058;-45
2022/08/13 12:55:34;;;;;;;4.50;1.20;;;30.80;26.80;;;;;;5000915;28;20050;-46
2022/08/13 12:58:13;;;;;;;0.80;0.80;;;30.80;26.60;;;;;;5003469;28;20050;-47
2022/08/13 13:00:42;;;;;;;4.60;1.10;;;30.80;26.40;;;;;;5000003;28;20057;-47
2022/08/13 13:03:12;;;;;;;1.02;0.90;;;30.90;26.60;;;;;;5004391;28;20498;-47
2022/08/13 13:05:40;;;;;;;1.00;0.90;;;30.90;26.50;;;;;;5001464;28;20050;-46
2022/08/13 13:08:20;;;;;;;1.70;0.90;;;30.90;26.30;;;;;;5000340;28;20050;-46
2022/08/13 13:10:50;;;;;;;1.60;0.90;;;30.90;26.10;;;;;;5002400;28;20045;-49
2022/08/13 13:13:22;;;;;;;1.45;1.00;;;30.90;26.10;;;;;;5000984;28;20516;-48
2022/08/13 13:15:53;;;;;;;2.55;1.10;;;30.90;26.20;;;;;;5001161;28;20053;-48
2022/08/13 13:18:25;;;;;;;0.98;0.90;;;30.90;26.20;;;;;;5001283;28;20061;-45
2022/08/13 13:20:53;;;;;;;49.40;30.17;;;31.00;26.20;;;;;;4999968;28;20417;-48
2022/08/13 13:23:21;;;;;;;12.13;7.05;;;31.00;26.10;;;;;;4998450;28;20061;-46
2022/08/13 13:25:52;;;;;;;4.35;1.50;;;31.00;26.50;;;;;;5003733;28;20049;-48
2022/08/13 13:28:24;;;;;;;1.38;1.10;;;31.00;25.70;;;;;;5000147;28;20085;-47
2022/08/13 13:30:55;;;;;;;2.40;1.20;;;31.00;25.80;;;;;;5000184;28;20050;-47